SKW5640 KMKE-KORD
Flight info
| Callsign | SKW5640 |
|---|---|
| Flight time | 0h 20m |
| Altitude | 16000 |
| Route | ZANDI MADII7 |
| Aircraft | CRJ7/M-SDFGIRWY/S |
Departure
| Time | 2026-04-22 15:40 |
|---|---|
| Airport | General Mitchell International Airport (KMKE) |
Arrival
| Time | 2026-04-22 16:00 |
|---|---|
| Airport | Chicago O'Hare International Airport (KORD) |
| Time | Latitude | Longitude | Altitude | Speed | Heading |
|---|---|---|---|---|---|
| 2026-04-22 15:13 | 42.94977 | -87.90215 | 683 ft | 0 kts | 120° |
| 2026-04-22 15:28 | 42.94983 | -87.90229 | 685 ft | 4 kts | 122° |
| 2026-04-22 15:29 | 42.94997 | -87.90260 | 684 ft | 4 kts | 110° |
| 2026-04-22 15:29 | 42.95000 | -87.90279 | 682 ft | 2 kts | 28° |
| 2026-04-22 15:29 | 42.94999 | -87.90279 | 682 ft | 1 kts | 28° |
| 2026-04-22 15:32 | 42.95007 | -87.90274 | 686 ft | 3 kts | 30° |
| 2026-04-22 15:32 | 42.95037 | -87.90245 | 686 ft | 7 kts | 35° |
| 2026-04-22 15:32 | 42.95092 | -87.90204 | 685 ft | 11 kts | 22° |
| 2026-04-22 15:33 | 42.95170 | -87.90150 | 686 ft | 14 kts | 41° |
| 2026-04-22 15:33 | 42.95207 | -87.90047 | 683 ft | 10 kts | 115° |
| 2026-04-22 15:33 | 42.95155 | -87.89969 | 680 ft | 12 kts | 131° |
| 2026-04-22 15:33 | 42.95095 | -87.89881 | 686 ft | 14 kts | 133° |
| 2026-04-22 15:34 | 42.95016 | -87.89803 | 681 ft | 15 kts | 156° |
| 2026-04-22 15:34 | 42.94943 | -87.89726 | 686 ft | 13 kts | 146° |
| 2026-04-22 15:34 | 42.94854 | -87.89709 | 686 ft | 14 kts | 186° |
| 2026-04-22 15:34 | 42.94751 | -87.89727 | 683 ft | 16 kts | 189° |
| 2026-04-22 15:35 | 42.94677 | -87.89738 | 680 ft | 17 kts | 188° |
| 2026-04-22 15:35 | 42.94559 | -87.89862 | 684 ft | 18 kts | 241° |
| 2026-04-22 15:35 | 42.94502 | -87.89969 | 686 ft | 11 kts | 200° |
| 2026-04-22 15:35 | 42.94422 | -87.89954 | 686 ft | 12 kts | 169° |
| 2026-04-22 15:36 | 42.94331 | -87.89932 | 686 ft | 14 kts | 170° |
| 2026-04-22 15:36 | 42.94228 | -87.89908 | 686 ft | 16 kts | 172° |
| 2026-04-22 15:36 | 42.94114 | -87.89884 | 686 ft | 17 kts | 178° |
| 2026-04-22 15:36 | 42.93988 | -87.89886 | 686 ft | 19 kts | 180° |
| 2026-04-22 15:37 | 42.93852 | -87.89887 | 686 ft | 20 kts | 180° |
| 2026-04-22 15:37 | 42.93730 | -87.89890 | 686 ft | 15 kts | 180° |
| 2026-04-22 15:37 | 42.93620 | -87.89892 | 686 ft | 17 kts | 180° |
| 2026-04-22 15:37 | 42.93500 | -87.89898 | 686 ft | 18 kts | 182° |
| 2026-04-22 15:38 | 42.93369 | -87.89905 | 686 ft | 19 kts | 181° |
| 2026-04-22 15:38 | 42.93118 | -87.89944 | 683 ft | 13 kts | 176° |
| 2026-04-22 15:38 | 42.93070 | -87.89865 | 686 ft | 12 kts | 94° |
| 2026-04-22 15:39 | 42.93088 | -87.89759 | 686 ft | 12 kts | 30° |
| 2026-04-22 15:39 | 42.93174 | -87.89744 | 686 ft | 14 kts | 7° |
| 2026-04-22 15:39 | 42.93418 | -87.89702 | 686 ft | 66 kts | 7° |
| 2026-04-22 15:39 | 42.94073 | -87.89587 | 687 ft | 121 kts | 7° |
| 2026-04-22 15:40 | 42.95016 | -87.89423 | 899 ft | 146 kts | 7° |
| 2026-04-22 15:40 | 42.96010 | -87.89300 | 1627 ft | 140 kts | 5° |
| 2026-04-22 15:40 | 42.96963 | -87.89557 | 2164 ft | 156 kts | 332° |
| 2026-04-22 15:40 | 42.97680 | -87.90826 | 2513 ft | 186 kts | 288° |
| 2026-04-22 15:41 | 42.97486 | -87.92720 | 2921 ft | 227 kts | 241° |
| 2026-04-22 15:41 | 42.96312 | -87.94225 | 3729 ft | 242 kts | 209° |
| 2026-04-22 15:41 | 42.94748 | -87.95275 | 4593 ft | 254 kts | 210° |
| 2026-04-22 15:41 | 42.93254 | -87.96602 | 5481 ft | 261 kts | 224° |
| 2026-04-22 15:42 | 42.92025 | -87.98460 | 6316 ft | 268 kts | 238° |
| 2026-04-22 15:42 | 42.91076 | -88.00694 | 7087 ft | 277 kts | 246° |
| 2026-04-22 15:42 | 42.90221 | -88.03075 | 7874 ft | 287 kts | 248° |
| 2026-04-22 15:42 | 42.89389 | -88.05490 | 9116 ft | 277 kts | 248° |
| 2026-04-22 15:43 | 42.88589 | -88.07829 | 10328 ft | 268 kts | 248° |
| 2026-04-22 15:43 | 42.87807 | -88.10125 | 11301 ft | 266 kts | 248° |
| 2026-04-22 15:43 | 42.86999 | -88.12413 | 12119 ft | 270 kts | 248° |
| 2026-04-22 15:43 | 42.86167 | -88.14735 | 12872 ft | 275 kts | 247° |
| 2026-04-22 15:44 | 42.85318 | -88.17095 | 13655 ft | 280 kts | 248° |
| 2026-04-22 15:44 | 42.84454 | -88.19496 | 14392 ft | 283 kts | 248° |
| 2026-04-22 15:44 | 42.83579 | -88.21888 | 15113 ft | 287 kts | 244° |
| 2026-04-22 15:44 | 42.82188 | -88.23920 | 15606 ft | 308 kts | 215° |
| 2026-04-22 15:45 | 42.80155 | -88.25154 | 15850 ft | 333 kts | 200° |
| 2026-04-22 15:45 | 42.77820 | -88.25954 | 15962 ft | 359 kts | 194° |
| 2026-04-22 15:45 | 42.75286 | -88.26629 | 16015 ft | 383 kts | 193° |
| 2026-04-22 15:45 | 42.72631 | -88.27313 | 16031 ft | 387 kts | 194° |
| 2026-04-22 15:46 | 42.70003 | -88.27995 | 16026 ft | 383 kts | 191° |
| 2026-04-22 15:46 | 42.67351 | -88.28238 | 16022 ft | 382 kts | 178° |
| 2026-04-22 15:46 | 42.64804 | -88.27263 | 16014 ft | 383 kts | 153° |
| 2026-04-22 15:46 | 42.62484 | -88.25524 | 16001 ft | 379 kts | 160° |
| 2026-04-22 15:47 | 42.60802 | -88.24985 | 15991 ft | 374 kts | 177° |
| 2026-04-22 15:47 | 42.58247 | -88.25303 | 16009 ft | 366 kts | 194° |
| 2026-04-22 15:47 | 42.54978 | -88.26397 | 16021 ft | 363 kts | 198° |
| 2026-04-22 15:47 | 42.52548 | -88.27314 | 16016 ft | 362 kts | 198° |
| 2026-04-22 15:48 | 42.50916 | -88.27960 | 16007 ft | 361 kts | 201° |
| 2026-04-22 15:48 | 42.48829 | -88.29605 | 15995 ft | 336 kts | 225° |
| 2026-04-22 15:48 | 42.47046 | -88.31475 | 15977 ft | 326 kts | 208° |
| 2026-04-22 15:48 | 42.44862 | -88.32057 | 15972 ft | 320 kts | 178° |
| 2026-04-22 15:49 | 42.42718 | -88.31437 | 15978 ft | 310 kts | 165° |
| 2026-04-22 15:49 | 42.40641 | -88.30671 | 15612 ft | 312 kts | 170° |
| 2026-04-22 15:49 | 42.38476 | -88.30298 | 15119 ft | 316 kts | 181° |
| 2026-04-22 15:49 | 42.36275 | -88.30443 | 14643 ft | 318 kts | 189° |
| 2026-04-22 15:50 | 42.34062 | -88.30799 | 14180 ft | 322 kts | 190° |
| 2026-04-22 15:50 | 42.31833 | -88.31216 | 13707 ft | 324 kts | 191° |
| 2026-04-22 15:50 | 42.29612 | -88.31657 | 13192 ft | 326 kts | 191° |
| 2026-04-22 15:50 | 42.27360 | -88.32117 | 12681 ft | 327 kts | 191° |
| 2026-04-22 15:51 | 42.25109 | -88.32585 | 12193 ft | 328 kts | 192° |
| 2026-04-22 15:51 | 42.22870 | -88.33057 | 11824 ft | 324 kts | 192° |
| 2026-04-22 15:51 | 42.20649 | -88.33524 | 11451 ft | 320 kts | 192° |
| 2026-04-22 15:51 | 42.18455 | -88.33990 | 11093 ft | 317 kts | 192° |
| 2026-04-22 15:52 | 42.16284 | -88.34442 | 10743 ft | 315 kts | 192° |
| 2026-04-22 15:52 | 42.14124 | -88.34891 | 10379 ft | 312 kts | 192° |
| 2026-04-22 15:52 | 42.11988 | -88.35335 | 10025 ft | 309 kts | 192° |
| 2026-04-22 15:52 | 42.09896 | -88.35772 | 9655 ft | 307 kts | 192° |
| 2026-04-22 15:53 | 42.07794 | -88.36209 | 9265 ft | 304 kts | 192° |
| 2026-04-22 15:53 | 42.05714 | -88.36648 | 8879 ft | 301 kts | 192° |
| 2026-04-22 15:53 | 42.03650 | -88.37085 | 8495 ft | 298 kts | 192° |
| 2026-04-22 15:53 | 42.01592 | -88.37171 | 8098 ft | 299 kts | 169° |
| 2026-04-22 15:54 | 41.99776 | -88.35930 | 7709 ft | 291 kts | 137° |
| 2026-04-22 15:54 | 41.98733 | -88.33694 | 7339 ft | 279 kts | 104° |
| 2026-04-22 15:54 | 41.98418 | -88.31177 | 6977 ft | 268 kts | 88° |
| 2026-04-22 15:54 | 41.98626 | -88.28732 | 6630 ft | 260 kts | 79° |
| 2026-04-22 15:55 | 41.98902 | -88.26337 | 6096 ft | 263 kts | 78° |
| 2026-04-22 15:55 | 41.99216 | -88.23869 | 5493 ft | 272 kts | 78° |
| 2026-04-22 15:55 | 41.99552 | -88.21334 | 4915 ft | 278 kts | 77° |
| 2026-04-22 15:55 | 41.99882 | -88.18804 | 4439 ft | 268 kts | 79° |
| 2026-04-22 15:56 | 42.00135 | -88.16384 | 4088 ft | 256 kts | 80° |
| 2026-04-22 15:56 | 42.00277 | -88.14041 | 3706 ft | 246 kts | 86° |
| 2026-04-22 15:56 | 42.00292 | -88.11799 | 3459 ft | 235 kts | 88° |
| 2026-04-22 15:56 | 42.00304 | -88.09656 | 3235 ft | 221 kts | 87° |
| 2026-04-22 15:57 | 42.00297 | -88.07673 | 2931 ft | 208 kts | 88° |
| 2026-04-22 15:57 | 42.00293 | -88.05787 | 2596 ft | 186 kts | 88° |
| 2026-04-22 15:57 | 42.00294 | -88.04168 | 2380 ft | 159 kts | 87° |
| 2026-04-22 15:57 | 42.00289 | -88.02772 | 2120 ft | 144 kts | 88° |
| 2026-04-22 15:58 | 42.00287 | -88.01464 | 1949 ft | 140 kts | 88° |
| 2026-04-22 15:58 | 42.00279 | -88.00157 | 1822 ft | 143 kts | 88° |
| 2026-04-22 15:58 | 42.00269 | -87.98782 | 1616 ft | 150 kts | 88° |
| 2026-04-22 15:58 | 42.00287 | -87.97392 | 1417 ft | 148 kts | 88° |
| 2026-04-22 15:59 | 42.00287 | -87.96040 | 1195 ft | 145 kts | 88° |
| 2026-04-22 15:59 | 42.00274 | -87.94700 | 1039 ft | 143 kts | 87° |
| 2026-04-22 15:59 | 42.00293 | -87.93360 | 823 ft | 141 kts | 85° |
| 2026-04-22 15:59 | 42.00288 | -87.92108 | 679 ft | 122 kts | 86° |
| 2026-04-22 16:00 | 42.00285 | -87.91176 | 671 ft | 76 kts | 91° |
| 2026-04-22 16:00 | 42.00284 | -87.90650 | 674 ft | 39 kts | 92° |
| 2026-04-22 16:00 | 42.00265 | -87.90304 | 671 ft | 34 kts | 101° |
| 2026-04-22 16:00 | 42.00197 | -87.90081 | 669 ft | 19 kts | 123° |
| 2026-04-22 16:01 | 42.00109 | -87.89971 | 669 ft | 15 kts | 149° |
| 2026-04-22 16:01 | 42.00021 | -87.89930 | 669 ft | 14 kts | 173° |
| 2026-04-22 16:01 | 41.99917 | -87.89924 | 669 ft | 16 kts | 180° |
| 2026-04-22 16:01 | 41.99804 | -87.89943 | 669 ft | 17 kts | 199° |
| 2026-04-22 16:02 | 41.99700 | -87.90026 | 669 ft | 17 kts | 199° |
| 2026-04-22 16:02 | 41.99578 | -87.90041 | 668 ft | 19 kts | 180° |
| 2026-04-22 16:02 | 41.99438 | -87.90041 | 665 ft | 22 kts | 180° |
| 2026-04-22 16:02 | 41.99282 | -87.90041 | 667 ft | 20 kts | 180° |
| 2026-04-22 16:03 | 41.99146 | -87.90041 | 668 ft | 20 kts | 180° |
| 2026-04-22 16:03 | 41.99001 | -87.90041 | 668 ft | 22 kts | 180° |
| 2026-04-22 16:03 | 41.98853 | -87.90040 | 667 ft | 21 kts | 180° |
| 2026-04-22 16:03 | 41.98713 | -87.90040 | 668 ft | 19 kts | 180° |
| 2026-04-22 16:04 | 41.98575 | -87.90042 | 668 ft | 21 kts | 179° |
| 2026-04-22 16:04 | 41.98424 | -87.90042 | 667 ft | 23 kts | 181° |
| 2026-04-22 16:04 | 41.98300 | -87.90060 | 667 ft | 13 kts | 230° |
| 2026-04-22 16:04 | 41.98290 | -87.90184 | 667 ft | 14 kts | 270° |
| 2026-04-22 16:05 | 41.98290 | -87.90326 | 667 ft | 16 kts | 270° |
| 2026-04-22 16:05 | 41.98291 | -87.90487 | 666 ft | 18 kts | 270° |
| 2026-04-22 16:05 | 41.98288 | -87.90664 | 666 ft | 20 kts | 264° |
| 2026-04-22 16:05 | 41.98258 | -87.90845 | 668 ft | 18 kts | 254° |
| 2026-04-22 16:06 | 41.98210 | -87.90979 | 668 ft | 16 kts | 240° |
| 2026-04-22 16:06 | 41.98143 | -87.91105 | 668 ft | 17 kts | 225° |
| 2026-04-22 16:06 | 41.98040 | -87.91196 | 669 ft | 19 kts | 208° |
| 2026-04-22 16:06 | 41.97919 | -87.91278 | 669 ft | 20 kts | 199° |
| 2026-04-22 16:07 | 41.97790 | -87.91299 | 669 ft | 17 kts | 171° |
| 2026-04-22 16:07 | 41.97676 | -87.91241 | 669 ft | 18 kts | 147° |
| 2026-04-22 16:07 | 41.97566 | -87.91137 | 669 ft | 20 kts | 143° |
| 2026-04-22 16:07 | 41.97452 | -87.91019 | 669 ft | 21 kts | 140° |
| 2026-04-22 16:08 | 41.97336 | -87.90882 | 669 ft | 23 kts | 135° |
| 2026-04-22 16:08 | 41.97235 | -87.90714 | 669 ft | 22 kts | 111° |
| 2026-04-22 16:08 | 41.97215 | -87.90552 | 669 ft | 14 kts | 94° |
| 2026-04-22 16:08 | 41.97248 | -87.90485 | 669 ft | 9 kts | 1° |
| 2026-04-22 16:09 | 41.97313 | -87.90491 | 669 ft | 10 kts | 359° |
| 2026-04-22 16:09 | 41.97380 | -87.90492 | 669 ft | 7 kts | 359° |
| 2026-04-22 16:09 | 41.97415 | -87.90497 | 669 ft | 2 kts | 327° |
| 2026-04-22 16:09 | 41.97423 | -87.90517 | 669 ft | 3 kts | 276° |
| 2026-04-22 16:10 | 41.97421 | -87.90544 | 669 ft | 3 kts | 258° |
| 2026-04-22 16:10 | 41.97420 | -87.90550 | 669 ft | 0 kts | 256° |